Time;durP1;ratioP1;P1;durP2;ratioP2;P2;SDS_P1;SDS_P2;PMS_P1;PMS_P2;Temp;Humidity;BMP_temperature;BMP_pressure;BME280_temperature;BME280_humidity;BME280_pressure;Samples;Min_cycle;Max_cycle;Signal;HPM_P1;HPM_P2
2023/05/07 00:01:05;;;;;;;;;;;19.80;89.60;;;;;;5094931;28;20006;-59
2023/05/07 00:03:31;;;;;;;;;;;19.80;89.60;;;;;;5094538;28;19969;-59
2023/05/07 00:05:56;;;;;;;;;;;19.80;89.60;;;;;;5093552;28;19912;-58
2023/05/07 00:08:22;;;;;;;;;;;19.80;89.50;;;;;;5076619;28;19908;-59
2023/05/07 00:10:47;;;;;;;;;;;19.80;89.50;;;;;;5094490;28;19915;-58
2023/05/07 00:13:13;;;;;;;;;;;19.80;89.50;;;;;;5095110;28;19908;-59
2023/05/07 00:15:38;;;;;;;;;;;19.80;89.50;;;;;;5094102;28;20322;-59
2023/05/07 00:18:04;;;;;;;;;;;19.80;89.40;;;;;;5094503;28;19996;-59
2023/05/07 00:20:29;;;;;;;;;;;19.80;89.40;;;;;;5094531;28;20049;-59
2023/05/07 00:22:55;;;;;;;;;;;19.80;89.40;;;;;;5094503;28;19962;-59
2023/05/07 00:25:20;;;;;;;;;;;19.70;89.30;;;;;;5093436;28;19915;-59
2023/05/07 00:27:46;;;;;;;;;;;19.80;89.40;;;;;;5094215;28;19919;-58
2023/05/07 00:30:11;;;;;;;;;;;19.80;89.40;;;;;;5093969;28;19995;-59
2023/05/07 00:32:37;;;;;;;;;;;19.80;89.40;;;;;;5094569;28;19908;-59
2023/05/07 00:35:03;;;;;;;;;;;19.80;89.40;;;;;;5093945;28;19909;-59
2023/05/07 00:37:29;;;;;;;;;;;19.80;90.00;;;;;;5093617;28;19920;-59
2023/05/07 00:39:55;;;;;;;;;;;19.80;89.50;;;;;;5093936;28;19955;-59
2023/05/07 00:42:20;;;;;;;;;;;19.80;89.50;;;;;;5093803;28;19962;-59
2023/05/07 00:44:46;;;;;;;;;;;19.80;89.50;;;;;;5076123;28;20252;-59
2023/05/07 00:47:11;;;;;;;;;;;19.80;89.50;;;;;;5093306;28;20369;-59
2023/05/07 00:49:38;;;;;;;;;;;19.80;89.60;;;;;;5075991;28;19915;-59
2023/05/07 00:52:05;;;;;;;;;;;19.80;89.50;;;;;;5094086;28;19944;-60
2023/05/07 00:54:30;;;;;;;;;;;19.80;89.50;;;;;;5093879;28;20367;-59
2023/05/07 00:56:56;;;;;;;;;;;19.80;89.60;;;;;;5093025;28;19912;-59
2023/05/07 00:59:21;;;;;;;;;;;19.80;89.50;;;;;;5093952;28;19908;-60
2023/05/07 01:01:47;;;;;;;;;;;19.80;89.60;;;;;;5094131;28;19909;-59
2023/05/07 01:04:12;;;;;;;;;;;19.80;89.60;;;;;;5092820;28;19967;-60
2023/05/07 01:06:38;;;;;;;;;;;19.80;89.60;;;;;;5093758;28;19912;-59
2023/05/07 01:09:04;;;;;;;;;;;19.80;89.60;;;;;;5094103;28;19914;-59
2023/05/07 01:11:30;;;;;;;;;;;19.80;89.60;;;;;;5076056;28;19915;-60
2023/05/07 01:13:57;;;;;;;;;;;19.80;89.60;;;;;;5093717;28;19938;-60
2023/05/07 01:16:23;;;;;;;;;;;19.80;89.60;;;;;;5094363;28;19914;-59
2023/05/07 01:18:49;;;;;;;;;;;19.80;89.60;;;;;;5093677;28;20002;-61
2023/05/07 01:21:15;;;;;;;;;;;19.80;89.60;;;;;;5094003;28;20024;-59
2023/05/07 01:23:41;;;;;;;;;;;19.80;89.60;;;;;;5093089;28;20450;-60
2023/05/07 01:26:06;;;;;;;;;;;19.80;89.60;;;;;;5093648;28;19947;-59
2023/05/07 01:28:32;;;;;;;;;;;19.80;89.60;;;;;;5093576;28;19977;-60
2023/05/07 01:31:01;;;;;;;;;;;19.80;89.60;;;;;;5093653;28;20011;-59
2023/05/07 01:33:29;;;;;;;;;;;19.80;89.60;;;;;;5093396;28;19912;-60
2023/05/07 01:35:55;;;;;;;;;;;19.80;89.60;;;;;;5093850;28;19908;-60
2023/05/07 01:38:21;;;;;;;;;;;19.80;89.60;;;;;;5093536;28;20058;-60
2023/05/07 01:40:47;;;;;;;;;;;19.80;89.60;;;;;;5075773;28;20384;-60
2023/05/07 01:43:12;;;;;;;;;;;19.70;89.60;;;;;;5096649;28;20014;-59
2023/05/07 01:45:38;;;;;;;;;;;19.80;89.60;;;;;;5097633;28;19919;-60
2023/05/07 01:48:04;;;;;;;;;;;19.80;89.60;;;;;;5097930;28;19908;-59
2023/05/07 01:50:30;;;;;;;;;;;19.80;89.60;;;;;;5079256;28;20424;-59
2023/05/07 01:52:56;;;;;;;;;;;19.80;89.60;;;;;;5097513;28;19908;-59
2023/05/07 01:55:21;;;;;;;;;;;19.80;89.70;;;;;;5096518;28;19922;-59
2023/05/07 01:57:47;;;;;;;;;;;19.80;89.70;;;;;;5078932;28;19912;-59
2023/05/07 02:00:12;;;;;;;;;;;19.80;89.60;;;;;;5095893;28;19930;-59
2023/05/07 02:02:38;;;;;;;;;;;19.80;89.70;;;;;;5094984;28;20341;-59
2023/05/07 02:05:03;;;;;;;;;;;19.80;89.60;;;;;;5097277;28;19908;-60
2023/05/07 02:07:29;;;;;;;;;;;19.80;89.60;;;;;;5097180;28;19912;-59
2023/05/07 02:09:55;;;;;;;;;;;19.80;89.60;;;;;;5097174;28;19960;-58
2023/05/07 02:12:21;;;;;;;;;;;19.80;89.70;;;;;;5077550;28;20362;-58
2023/05/07 02:14:46;;;;;;;;;;;19.80;89.60;;;;;;5097076;28;19912;-59
2023/05/07 02:17:12;;;;;;;;;;;19.80;89.60;;;;;;5097032;28;20046;-59
2023/05/07 02:19:37;;;;;;;;;;;19.80;89.60;;;;;;5096874;28;20275;-59
2023/05/07 02:22:02;;;;;;;;;;;19.80;89.60;;;;;;5095174;28;19908;-59
2023/05/07 02:24:28;;;;;;;;;;;19.80;89.60;;;;;;5096963;28;19943;-59
2023/05/07 02:26:53;;;;;;;;;;;19.80;89.60;;;;;;5096634;28;20414;-59
2023/05/07 02:29:19;;;;;;;;;;;19.80;89.70;;;;;;5078720;28;19954;-59
2023/05/07 02:31:44;;;;;;;;;;;19.80;89.70;;;;;;5095714;28;20355;-59
2023/05/07 02:34:10;;;;;;;;;;;19.80;89.70;;;;;;5093988;28;20321;-59
2023/05/07 02:36:36;;;;;;;;;;;19.80;89.80;;;;;;5094158;28;19962;-59
2023/05/07 02:39:02;;;;;;;;;;;19.80;89.80;;;;;;5096706;28;19912;-59
2023/05/07 02:41:27;;;;;;;;;;;19.80;89.80;;;;;;5095929;28;19999;-58
2023/05/07 02:43:53;;;;;;;;;;;19.80;89.80;;;;;;5096475;28;20030;-59
2023/05/07 02:46:18;;;;;;;;;;;19.80;89.80;;;;;;5096518;28;19916;-58
2023/05/07 02:48:44;;;;;;;;;;;19.80;89.80;;;;;;5096251;28;19912;-59
2023/05/07 02:51:10;;;;;;;;;;;19.80;89.80;;;;;;5077824;28;19957;-59
2023/05/07 02:53:35;;;;;;;;;;;19.80;89.80;;;;;;5094468;28;19912;-59
2023/05/07 02:56:01;;;;;;;;;;;19.80;89.80;;;;;;5095644;28;19919;-59
2023/05/07 02:58:26;;;;;;;;;;;19.80;89.80;;;;;;5096210;28;20305;-58
2023/05/07 03:00:52;;;;;;;;;;;19.80;89.80;;;;;;5095388;28;19995;-59
2023/05/07 03:03:18;;;;;;;;;;;19.80;89.80;;;;;;5077189;28;19920;-59
2023/05/07 03:05:43;;;;;;;;;;;19.80;89.80;;;;;;5096196;28;19908;-59
2023/05/07 03:08:09;;;;;;;;;;;19.80;89.80;;;;;;5096064;28;19912;-59
2023/05/07 03:10:35;;;;;;;;;;;19.80;89.80;;;;;;5095125;28;20274;-59
2023/05/07 03:13:00;;;;;;;;;;;19.80;89.80;;;;;;5095897;28;20286;-58
2023/05/07 03:15:26;;;;;;;;;;;19.80;89.90;;;;;;5095771;28;19999;-58
2023/05/07 03:17:51;;;;;;;;;;;19.80;89.80;;;;;;5095637;28;19912;-58
2023/05/07 03:20:17;;;;;;;;;;;19.80;89.90;;;;;;5095808;28;20355;-59
2023/05/07 03:22:42;;;;;;;;;;;19.80;89.90;;;;;;5095036;28;19912;-59
2023/05/07 03:25:08;;;;;;;;;;;19.80;90.00;;;;;;5095439;28;19954;-59
2023/05/07 03:27:34;;;;;;;;;;;19.80;90.00;;;;;;5095990;28;19916;-60
2023/05/07 03:29:59;;;;;;;;;;;19.80;90.00;;;;;;5095680;28;19937;-58
2023/05/07 03:32:25;;;;;;;;;;;19.80;90.00;;;;;;5094863;28;19950;-59
2023/05/07 03:34:50;;;;;;;;;;;19.80;90.00;;;;;;5095565;28;19999;-58
2023/05/07 03:37:16;;;;;;;;;;;19.80;90.00;;;;;;5095620;28;19908;-59
2023/05/07 03:39:41;;;;;;;;;;;19.80;88.60;;;;;;5092070;28;19920;-59
2023/05/07 03:42:07;;;;;;;;;;;19.80;89.00;;;;;;5095339;28;19924;-59
2023/05/07 03:44:32;;;;;;;;;;;19.80;89.50;;;;;;5095264;28;19916;-59
2023/05/07 03:46:57;;;;;;;;;;;19.80;89.70;;;;;;5095116;28;19922;-59
2023/05/07 03:49:23;;;;;;;;;;;19.80;89.80;;;;;;5093490;28;20403;-59
2023/05/07 03:51:48;;;;;;;;;;;19.80;89.80;;;;;;5097672;28;19916;-59
2023/05/07 03:54:14;;;;;;;;;;;19.80;89.80;;;;;;5086996;28;20082;-59
2023/05/07 03:56:39;;;;;;;;;;;19.80;89.80;;;;;;5095179;28;19955;-59
2023/05/07 03:59:05;;;;;;;;;;;19.80;89.80;;;;;;5093815;28;19934;-57
2023/05/07 04:01:30;;;;;;;;;;;19.80;89.80;;;;;;5094658;28;20335;-59
2023/05/07 04:03:56;;;;;;;;;;;19.80;89.80;;;;;;5098898;28;20038;-59
2023/05/07 04:06:22;;;;;;;;;;;19.80;89.80;;;;;;5096863;28;20011;-59
2023/05/07 04:08:47;;;;;;;;;;;19.80;89.90;;;;;;5077377;28;19920;-58
2023/05/07 04:11:12;;;;;;;;;;;19.80;90.00;;;;;;5092916;28;19912;-59
2023/05/07 04:13:38;;;;;;;;;;;19.80;90.00;;;;;;5094785;28;19912;-59
2023/05/07 04:16:04;;;;;;;;;;;19.80;90.00;;;;;;5092895;28;19929;-59
2023/05/07 04:18:30;;;;;;;;;;;19.80;90.00;;;;;;5094362;28;19908;-59
2023/05/07 04:20:55;;;;;;;;;;;19.80;90.00;;;;;;5092839;28;19920;-59
2023/05/07 04:23:21;;;;;;;;;;;19.80;90.10;;;;;;5091695;28;19920;-59
2023/05/07 04:25:46;;;;;;;;;;;19.80;90.00;;;;;;5092881;28;19948;-59
2023/05/07 04:28:12;;;;;;;;;;;19.80;90.10;;;;;;5094416;28;19908;-59
2023/05/07 04:30:38;;;;;;;;;;;19.80;90.00;;;;;;5093757;28;20355;-59
2023/05/07 04:33:03;;;;;;;;;;;19.80;90.00;;;;;;5094198;28;19909;-58
2023/05/07 04:35:29;;;;;;;;;;;19.80;90.00;;;;;;5094383;28;19912;-59
2023/05/07 04:37:54;;;;;;;;;;;19.80;90.00;;;;;;5092986;28;20397;-59
2023/05/07 04:40:20;;;;;;;;;;;19.90;90.10;;;;;;5093303;28;19913;-59
2023/05/07 04:42:45;;;;;;;;;;;19.80;90.10;;;;;;5093266;28;19920;-59
2023/05/07 04:45:12;;;;;;;;;;;19.80;90.10;;;;;;5092211;28;20362;-58
2023/05/07 04:47:37;;;;;;;;;;;19.80;90.10;;;;;;5092286;28;19908;-58
2023/05/07 04:50:03;;;;;;;;;;;19.80;90.10;;;;;;5073084;28;19915;-58
2023/05/07 04:52:29;;;;;;;;;;;19.80;90.10;;;;;;5073946;28;19912;-58
2023/05/07 04:54:54;;;;;;;;;;;19.80;90.10;;;;;;5092525;28;19944;-59
2023/05/07 04:57:19;;;;;;;;;;;19.90;90.10;;;;;;5092606;28;20363;-59
2023/05/07 04:59:45;;;;;;;;;;;19.80;90.10;;;;;;5092511;28;19912;-57
2023/05/07 05:02:11;;;;;;;;;;;19.80;90.00;;;;;;5093762;28;20105;-59
2023/05/07 05:04:36;;;;;;;;;;;19.90;90.00;;;;;;5094158;28;20381;-59
2023/05/07 05:07:03;;;;;;;;;;;19.90;90.00;;;;;;5094112;28;19912;-59
2023/05/07 05:09:28;;;;;;;;;;;19.80;90.00;;;;;;5093321;28;19916;-58
2023/05/07 05:11:54;;;;;;;;;;;19.80;90.00;;;;;;5093729;28;19968;-58
2023/05/07 05:14:19;;;;;;;;;;;19.80;90.00;;;;;;5094062;28;19941;-59
2023/05/07 05:16:45;;;;;;;;;;;19.80;90.00;;;;;;5096600;28;19908;-59
2023/05/07 05:19:10;;;;;;;;;;;19.90;90.00;;;;;;5098151;28;19915;-59
2023/05/07 05:21:36;;;;;;;;;;;19.80;90.00;;;;;;5096495;28;19958;-59
2023/05/07 05:24:01;;;;;;;;;;;19.80;90.00;;;;;;5097732;28;19916;-59
2023/05/07 05:26:27;;;;;;;;;;;19.80;90.20;;;;;;5097693;28;19919;-59
2023/05/07 05:28:52;;;;;;;;;;;19.90;90.00;;;;;;5097999;28;19908;-59
2023/05/07 05:31:18;;;;;;;;;;;19.90;90.00;;;;;;5096892;28;20011;-59
2023/05/07 05:33:43;;;;;;;;;;;19.90;90.00;;;;;;5097532;28;19908;-60
2023/05/07 05:36:09;;;;;;;;;;;19.90;90.00;;;;;;5097632;28;19964;-59
2023/05/07 05:38:35;;;;;;;;;;;19.90;90.00;;;;;;5097878;28;19959;-60
2023/05/07 05:41:00;;;;;;;;;;;19.90;90.00;;;;;;5097087;28;20362;-60
2023/05/07 05:43:25;;;;;;;;;;;19.90;90.00;;;;;;5097940;28;19959;-60
2023/05/07 05:45:51;;;;;;;;;;;19.90;90.00;;;;;;5079747;28;19908;-60
2023/05/07 05:48:16;;;;;;;;;;;19.90;90.00;;;;;;5097321;28;19914;-59
2023/05/07 05:50:42;;;;;;;;;;;19.80;90.00;;;;;;5096521;28;19942;-59
2023/05/07 05:53:07;;;;;;;;;;;19.90;90.10;;;;;;5097442;28;19908;-59
2023/05/07 05:55:33;;;;;;;;;;;19.90;90.10;;;;;;5097394;28;19908;-59
2023/05/07 05:58:01;;;;;;;;;;;19.90;90.10;;;;;;5097486;28;20374;-59
2023/05/07 06:00:27;;;;;;;;;;;19.90;90.10;;;;;;5095198;28;20271;-59
2023/05/07 06:02:52;;;;;;;;;;;19.90;90.10;;;;;;5097546;28;20007;-59
2023/05/07 06:05:18;;;;;;;;;;;19.90;90.10;;;;;;5097221;28;19911;-59
2023/05/07 06:07:43;;;;;;;;;;;19.90;90.10;;;;;;5096784;28;19908;-59
2023/05/07 06:10:09;;;;;;;;;;;19.90;90.10;;;;;;5096677;28;19923;-59
2023/05/07 06:12:34;;;;;;;;;;;19.90;90.10;;;;;;5097256;28;19908;-59
2023/05/07 06:15:00;;;;;;;;;;;19.90;90.10;;;;;;5096738;28;20346;-59
2023/05/07 06:17:25;;;;;;;;;;;19.90;90.10;;;;;;5078395;28;19916;-58
2023/05/07 06:19:51;;;;;;;;;;;19.90;90.00;;;;;;5077663;28;19912;-59
2023/05/07 06:22:16;;;;;;;;;;;19.90;90.00;;;;;;5096801;28;19908;-59
2023/05/07 06:24:42;;;;;;;;;;;19.90;90.00;;;;;;5096452;28;19923;-59
2023/05/07 06:27:07;;;;;;;;;;;19.90;90.00;;;;;;5095409;28;19909;-59
2023/05/07 06:29:33;;;;;;;;;;;19.90;90.00;;;;;;5096063;28;20355;-57
2023/05/07 06:32:11;;;;;;;;;;;19.90;90.00;;;;;;5099631;28;19912;-59
2023/05/07 06:34:37;;;;;;;;;;;19.90;90.00;;;;;;5095746;28;19912;-59
2023/05/07 06:37:03;;;;;;;;;;;19.90;90.00;;;;;;5096711;28;19991;-59
2023/05/07 06:39:28;;;;;;;;;;;19.90;90.00;;;;;;5096640;28;19963;-58
2023/05/07 06:41:54;;;;;;;;;;;19.90;90.00;;;;;;5095587;28;19920;-59
2023/05/07 06:44:19;;;;;;;;;;;19.90;90.00;;;;;;5096506;28;20371;-59
2023/05/07 06:46:45;;;;;;;;;;;19.90;90.30;;;;;;5096289;28;19915;-58
2023/05/07 06:49:11;;;;;;;;;;;19.90;90.10;;;;;;5096081;28;19947;-59
2023/05/07 06:51:37;;;;;;;;;;;19.90;90.10;;;;;;5095419;28;19919;-62
2023/05/07 06:54:04;;;;;;;;;;;19.90;90.10;;;;;;5078246;28;19912;-58
2023/05/07 06:56:30;;;;;;;;;;;19.90;90.10;;;;;;5096090;28;19916;-58
2023/05/07 06:58:55;;;;;;;;;;;19.90;90.10;;;;;;5092864;28;20352;-59
2023/05/07 07:01:20;;;;;;;;;;;19.90;90.10;;;;;;5095090;28;19919;-59
2023/05/07 07:03:46;;;;;;;;;;;19.90;90.10;;;;;;5103805;28;20336;-59
2023/05/07 07:06:12;;;;;;;;;;;19.90;90.10;;;;;;5101051;28;19912;-59
2023/05/07 07:08:38;;;;;;;;;;;19.90;90.20;;;;;;5095949;28;19931;-59
2023/05/07 07:11:04;;;;;;;;;;;19.90;90.20;;;;;;5096304;28;20347;-59
2023/05/07 07:13:30;;;;;;;;;;;19.90;90.20;;;;;;5094846;28;19934;-59
2023/05/07 07:15:55;;;;;;;;;;;19.90;90.20;;;;;;5096097;28;19969;-59
2023/05/07 07:18:21;;;;;;;;;;;19.90;90.20;;;;;;5095816;28;19942;-59
2023/05/07 07:20:46;;;;;;;;;;;19.90;90.30;;;;;;5095863;28;19908;-61
2023/05/07 07:23:12;;;;;;;;;;;19.90;90.20;;;;;;5097739;28;19926;-59
2023/05/07 07:25:37;;;;;;;;;;;19.90;90.20;;;;;;5095427;28;19912;-59
2023/05/07 07:28:02;;;;;;;;;;;19.90;90.20;;;;;;5095606;28;19915;-59
2023/05/07 07:30:28;;;;;;;;;;;19.90;90.20;;;;;;5092682;28;20456;-58
2023/05/07 07:32:54;;;;;;;;;;;19.90;90.20;;;;;;5094567;28;19943;-59
2023/05/07 07:35:20;;;;;;;;;;;19.90;90.20;;;;;;5095180;28;19908;-59
2023/05/07 07:37:46;;;;;;;;;;;19.90;90.20;;;;;;5095035;28;19953;-59
2023/05/07 07:40:12;;;;;;;;;;;19.90;90.20;;;;;;5095320;28;19953;-59
2023/05/07 07:42:37;;;;;;;;;;;19.90;90.20;;;;;;5086936;28;19920;-59
2023/05/07 07:45:04;;;;;;;;;;;19.90;90.30;;;;;;5094776;28;19916;-59
2023/05/07 07:47:29;;;;;;;;;;;19.90;90.30;;;;;;5099020;28;19916;-59
2023/05/07 07:49:55;;;;;;;;;;;19.90;90.30;;;;;;5084823;28;20343;-59
2023/05/07 07:52:20;;;;;;;;;;;19.90;90.30;;;;;;5094155;28;19951;-58
2023/05/07 07:54:46;;;;;;;;;;;19.90;90.30;;;;;;5095829;28;19978;-59
2023/05/07 07:57:11;;;;;;;;;;;19.90;90.30;;;;;;5094866;28;19915;-59
2023/05/07 07:59:37;;;;;;;;;;;19.90;90.30;;;;;;5093771;28;20256;-59
2023/05/07 08:02:02;;;;;;;;;;;20.00;90.30;;;;;;5094447;28;19915;-59
2023/05/07 08:04:28;;;;;;;;;;;20.00;90.30;;;;;;5097531;28;19919;-59
2023/05/07 08:06:54;;;;;;;;;;;19.90;90.30;;;;;;5108977;28;19912;-58
2023/05/07 08:09:19;;;;;;;;;;;19.90;90.30;;;;;;5097798;28;19923;-60
2023/05/07 08:11:45;;;;;;;;;;;19.90;90.30;;;;;;5090516;28;19916;-58
2023/05/07 08:14:11;;;;;;;;;;;20.00;90.30;;;;;;5103712;28;20362;-58
2023/05/07 08:16:36;;;;;;;;;;;19.90;90.20;;;;;;5097909;28;19919;-60
2023/05/07 08:19:02;;;;;;;;;;;20.00;90.30;;;;;;5102630;28;20335;-60
2023/05/07 08:21:27;;;;;;;;;;;20.00;90.30;;;;;;5100288;28;19919;-60
2023/05/07 08:23:53;;;;;;;;;;;19.90;90.30;;;;;;5099100;28;20337;-66
2023/05/07 08:26:18;;;;;;;;;;;20.00;90.30;;;;;;5102400;28;19954;-58
2023/05/07 08:28:43;;;;;;;;;;;20.00;90.30;;;;;;5106301;28;19912;-59
2023/05/07 08:31:09;;;;;;;;;;;20.00;90.30;;;;;;5095327;28;19918;-56
2023/05/07 08:33:34;;;;;;;;;;;20.00;90.40;;;;;;5097005;28;19920;-60
2023/05/07 08:36:00;;;;;;;;;;;20.00;90.40;;;;;;5110047;28;19912;-60
2023/05/07 08:38:25;;;;;;;;;;;20.00;90.40;;;;;;5112451;28;20347;-61
2023/05/07 08:40:51;;;;;;;;;;;20.00;90.40;;;;;;5110153;28;20431;-61
2023/05/07 08:43:18;;;;;;;;;;;20.00;90.40;;;;;;5107684;28;19920;-60
2023/05/07 08:45:45;;;;;;;;;;;20.00;90.40;;;;;;5099839;28;20501;-60
2023/05/07 08:48:15;;;;;;;;;;;20.00;90.30;;;;;;5076096;28;19908;-60
2023/05/07 08:50:40;;;;;;;;;;;20.00;90.30;;;;;;5078094;28;19973;-60
2023/05/07 08:53:06;;;;;;;;;;;20.00;90.30;;;;;;5094975;28;19916;-60
2023/05/07 08:55:33;;;;;;;;;;;20.00;90.30;;;;;;5096925;28;19919;-60
2023/05/07 08:57:58;;;;;;;;;;;20.00;90.30;;;;;;5080544;28;19912;-60
2023/05/07 09:00:24;;;;;;;;;;;20.00;90.30;;;;;;5093543;28;20247;-60
2023/05/07 09:02:50;;;;;;;;;;;20.00;90.30;;;;;;5103336;28;20391;-60
2023/05/07 09:05:15;;;;;;;;;;;20.00;90.30;;;;;;5089597;28;19920;-59
2023/05/07 09:07:41;;;;;;;;;;;20.00;90.40;;;;;;5101614;28;20284;-60
2023/05/07 09:10:06;;;;;;;;;;;20.00;90.40;;;;;;5091125;28;19912;-61
2023/05/07 09:12:32;;;;;;;;;;;20.00;90.30;;;;;;5090117;28;20278;-60
2023/05/07 09:14:58;;;;;;;;;;;20.00;90.30;;;;;;5093500;28;19912;-60
2023/05/07 09:17:24;;;;;;;;;;;20.00;90.40;;;;;;5093927;28;19912;-60
2023/05/07 09:19:50;;;;;;;;;;;20.00;90.40;;;;;;5096025;28;20277;-60
2023/05/07 09:22:15;;;;;;;;;;;20.00;90.30;;;;;;5110467;28;20348;-59
2023/05/07 09:24:46;;;;;;;;;;;20.00;90.40;;;;;;5107970;28;20018;-60
2023/05/07 09:27:13;;;;;;;;;;;20.00;90.40;;;;;;5107079;28;19958;-60
2023/05/07 09:29:38;;;;;;;;;;;20.00;90.40;;;;;;5094488;28;19999;-60
2023/05/07 09:32:07;;;;;;;;;;;20.00;90.40;;;;;;5094224;28;20378;-60
2023/05/07 09:34:33;;;;;;;;;;;20.00;90.50;;;;;;5102932;28;20335;-60
2023/05/07 09:37:00;;;;;;;;;;;20.00;90.40;;;;;;5109302;28;19951;-59
2023/05/07 09:39:25;;;;;;;;;;;20.00;90.40;;;;;;5111453;28;19919;-59
2023/05/07 09:41:54;;;;;;;;;;;20.00;90.40;;;;;;5095389;28;19919;-61
2023/05/07 09:44:20;;;;;;;;;;;20.00;90.40;;;;;;5111681;28;19946;-60
2023/05/07 09:46:46;;;;;;;;;;;20.00;90.40;;;;;;5108155;28;20332;-59
2023/05/07 09:49:17;;;;;;;;;;;20.00;90.40;;;;;;5114036;28;19984;-60
2023/05/07 09:51:47;;;;;;;;;;;20.00;90.40;;;;;;5099498;28;19937;-60
2023/05/07 09:54:13;;;;;;;;;;;20.00;90.30;;;;;;5110230;28;19912;-60
2023/05/07 09:56:41;;;;;;;;;;;20.00;90.30;;;;;;5092843;28;19916;-60
2023/05/07 09:59:07;;;;;;;;;;;20.00;90.30;;;;;;5081503;28;19916;-60
2023/05/07 10:01:32;;;;;;;;;;;20.00;90.30;;;;;;5073452;28;19913;-61
2023/05/07 10:03:58;;;;;;;;;;;20.00;90.30;;;;;;5075894;28;19916;-60
2023/05/07 10:06:25;;;;;;;;;;;20.00;90.30;;;;;;5082240;28;20338;-60
2023/05/07 10:08:51;;;;;;;;;;;20.00;90.30;;;;;;5097217;28;19908;-60
2023/05/07 10:11:17;;;;;;;;;;;20.00;90.30;;;;;;5096785;28;20216;-60
2023/05/07 10:13:43;;;;;;;;;;;20.00;90.30;;;;;;5097065;28;19934;-60
2023/05/07 10:16:08;;;;;;;;;;;20.00;90.30;;;;;;5080812;28;20002;-60
2023/05/07 10:18:34;;;;;;;;;;;20.00;90.30;;;;;;5076290;28;20366;-60
2023/05/07 10:21:29;;;;;;;;;;;20.00;90.30;;;;;;5076576;28;19909;-60
2023/05/07 10:23:59;;;;;;;;;;;20.00;90.30;;;;;;5058853;28;19917;-60
2023/05/07 10:26:25;;;;;;;;;;;20.00;90.40;;;;;;5076163;28;19920;-60
2023/05/07 10:28:53;;;;;;;;;;;20.00;90.30;;;;;;5076695;28;20333;-60
2023/05/07 10:31:43;;;;;;;;;;;20.00;90.40;;;;;;5076357;28;20294;-59
2023/05/07 10:34:10;;;;;;;;;;;20.00;90.30;;;;;;5096430;28;19920;-60
2023/05/07 10:36:36;;;;;;;;;;;20.00;90.30;;;;;;5096208;28;20420;-60
2023/05/07 10:39:02;;;;;;;;;;;20.00;90.30;;;;;;5096372;28;19911;-60
2023/05/07 10:41:27;;;;;;;;;;;20.00;90.60;;;;;;5096246;28;20300;-59
2023/05/07 10:43:53;;;;;;;;;;;20.00;90.30;;;;;;5096003;28;20363;-60
2023/05/07 10:46:19;;;;;;;;;;;20.00;90.30;;;;;;5096353;28;19918;-60
2023/05/07 10:49:08;;;;;;;;;;;20.00;90.50;;;;;;5094964;28;19908;-60
2023/05/07 10:51:34;;;;;;;;;;;20.00;90.30;;;;;;5087676;28;19912;-60
2023/05/07 10:54:11;;;;;;;;;;;20.00;90.30;;;;;;5095743;28;20368;-59
2023/05/07 10:56:37;;;;;;;;;;;20.00;90.30;;;;;;5095873;28;19915;-59
2023/05/07 10:59:24;;;;;;;;;;;20.00;90.30;;;;;;5077692;28;19963;-60
2023/05/07 11:01:51;;;;;;;;;;;20.10;90.50;;;;;;5084591;28;19912;-60
2023/05/07 11:04:25;;;;;;;;;;;20.10;90.30;;;;;;5095730;28;19916;-60
2023/05/07 11:07:09;;;;;;;;;;;20.00;90.20;;;;;;5094953;28;20358;-60
2023/05/07 11:09:53;;;;;;;;;;;20.00;90.30;;;;;;5095522;28;19999;-60
2023/05/07 11:12:40;;;;;;;;;;;20.10;90.30;;;;;;5095299;28;19912;-59
2023/05/07 11:15:32;;;;;;;;;;;20.00;90.20;;;;;;5093022;28;19908;-59
2023/05/07 11:17:58;;;;;;;;;;;20.10;90.30;;;;;;5104734;28;19912;-59
2023/05/07 11:20:43;;;;;;;;;;;20.10;90.20;;;;;;5108616;28;19962;-59
2023/05/07 11:23:28;;;;;;;;;;;20.00;90.20;;;;;;5089129;28;19916;-58
2023/05/07 11:25:58;;;;;;;;;;;20.10;90.30;;;;;;5081236;28;19958;-59
2023/05/07 11:28:24;;;;;;;;;;;20.10;90.20;;;;;;5091327;28;19916;-58
2023/05/07 11:30:50;;;;;;;;;;;20.10;90.20;;;;;;5087576;28;20359;-60
2023/05/07 11:33:17;;;;;;;;;;;20.10;90.20;;;;;;5083646;28;19911;-60
2023/05/07 11:35:42;;;;;;;;;;;20.10;90.20;;;;;;5085789;28;19915;-60
2023/05/07 11:38:08;;;;;;;;;;;20.10;90.20;;;;;;5092205;28;19998;-60
2023/05/07 11:40:33;;;;;;;;;;;20.10;90.20;;;;;;5089078;28;20278;-60
2023/05/07 11:43:09;;;;;;;;;;;20.10;90.20;;;;;;5091965;28;19967;-59
2023/05/07 11:45:35;;;;;;;;;;;20.10;90.20;;;;;;5096129;28;19923;-59
2023/05/07 11:48:01;;;;;;;;;;;20.10;90.20;;;;;;5089711;28;20283;-58
2023/05/07 11:50:27;;;;;;;;;;;20.10;90.20;;;;;;5087987;28;19998;-59
2023/05/07 11:52:52;;;;;;;;;;;20.10;90.20;;;;;;5094573;28;20436;-59
2023/05/07 11:55:18;;;;;;;;;;;20.10;90.10;;;;;;5093995;28;19913;-59
2023/05/07 11:57:44;;;;;;;;;;;20.10;90.10;;;;;;5086401;28;19914;-59
2023/05/07 12:00:10;;;;;;;;;;;20.10;90.10;;;;;;5094969;28;19938;-60
2023/05/07 12:02:35;;;;;;;;;;;20.10;90.10;;;;;;5083258;28;19938;-59
2023/05/07 12:05:02;;;;;;;;;;;20.10;90.10;;;;;;5091566;28;20305;-59
2023/05/07 12:07:27;;;;;;;;;;;20.10;90.00;;;;;;5095344;28;20441;-59
2023/05/07 12:09:53;;;;;;;;;;;20.10;90.10;;;;;;5111200;28;19907;-59
2023/05/07 12:12:18;;;;;;;;;;;20.10;90.10;;;;;;5112445;28;20362;-59
2023/05/07 12:14:44;;;;;;;;;;;20.10;90.10;;;;;;5098797;28;19908;-58
2023/05/07 12:17:10;;;;;;;;;;;20.10;90.10;;;;;;5092423;28;20314;-59
2023/05/07 12:19:36;;;;;;;;;;;20.10;90.10;;;;;;5092574;28;19916;-58
2023/05/07 12:22:05;;;;;;;;;;;20.10;90.10;;;;;;5092232;28;19916;-58
2023/05/07 12:24:44;;;;;;;;;;;20.10;90.10;;;;;;5092362;28;20073;-59
2023/05/07 12:27:09;;;;;;;;;;;20.10;90.10;;;;;;5094145;28;19946;-60
2023/05/07 12:29:35;;;;;;;;;;;20.10;90.10;;;;;;5094023;28;20232;-59
2023/05/07 12:32:00;;;;;;;;;;;20.10;90.10;;;;;;5075552;28;19908;-59
2023/05/07 12:34:26;;;;;;;;;;;20.10;90.10;;;;;;5076107;28;19974;-59
2023/05/07 12:36:51;;;;;;;;;;;20.10;90.10;;;;;;5094296;28;19912;-60
2023/05/07 12:39:17;;;;;;;;;;;20.10;90.10;;;;;;5093850;28;19916;-59
2023/05/07 12:41:53;;;;;;;;;;;20.10;90.10;;;;;;5093912;28;20404;-59
2023/05/07 12:44:18;;;;;;;;;;;20.10;90.10;;;;;;5093935;28;20014;-59
2023/05/07 12:46:46;;;;;;;;;;;20.10;90.20;;;;;;5092972;28;20409;-59
2023/05/07 12:49:12;;;;;;;;;;;20.10;90.10;;;;;;5093040;28;19951;-59
2023/05/07 12:51:37;;;;;;;;;;;20.10;90.10;;;;;;5093715;28;20382;-59
2023/05/07 12:54:03;;;;;;;;;;;20.10;90.20;;;;;;5093751;28;20346;-59
2023/05/07 12:56:30;;;;;;;;;;;20.10;90.20;;;;;;5094051;28;19934;-59
2023/05/07 12:58:57;;;;;;;;;;;20.10;90.20;;;;;;5077216;28;20275;-59
2023/05/07 13:01:28;;;;;;;;;;;20.20;90.20;;;;;;5073695;28;19955;-59
2023/05/07 13:03:54;;;;;;;;;;;20.20;90.20;;;;;;5066588;28;20354;-58
2023/05/07 13:06:19;;;;;;;;;;;20.20;90.20;;;;;;5102243;28;19919;-59
2023/05/07 13:08:45;;;;;;;;;;;20.20;90.20;;;;;;5106931;28;19969;-59
2023/05/07 13:11:11;;;;;;;;;;;20.10;90.20;;;;;;5113970;28;19908;-59
2023/05/07 13:13:37;;;;;;;;;;;20.20;90.20;;;;;;5087159;28;20256;-59
2023/05/07 13:16:03;;;;;;;;;;;20.20;90.20;;;;;;5089952;28;19908;-58
2023/05/07 13:18:32;;;;;;;;;;;20.20;90.10;;;;;;5094585;28;19927;-59
2023/05/07 13:20:58;;;;;;;;;;;20.20;90.10;;;;;;5094498;28;20298;-59
2023/05/07 13:23:23;;;;;;;;;;;20.20;90.10;;;;;;5096741;28;19946;-57
2023/05/07 13:25:50;;;;;;;;;;;20.20;90.00;;;;;;5073333;28;19920;-59
2023/05/07 13:28:16;;;;;;;;;;;20.20;90.00;;;;;;5089656;28;19920;-60
2023/05/07 13:30:42;;;;;;;;;;;20.20;90.00;;;;;;5097454;28;19919;-59
2023/05/07 13:33:08;;;;;;;;;;;20.20;89.40;;;;;;5090552;28;19913;-59
2023/05/07 13:35:34;;;;;;;;;;;20.20;90.00;;;;;;5092717;28;19919;-59
2023/05/07 13:37:59;;;;;;;;;;;20.20;90.10;;;;;;5093984;28;19920;-60
2023/05/07 13:40:25;;;;;;;;;;;20.20;90.20;;;;;;5096025;28;20351;-60
2023/05/07 13:42:50;;;;;;;;;;;20.20;90.20;;;;;;5096716;28;19973;-59
2023/05/07 13:45:16;;;;;;;;;;;20.20;90.20;;;;;;5095919;28;19916;-59
2023/05/07 13:47:42;;;;;;;;;;;20.20;90.30;;;;;;5098166;28;19916;-59
2023/05/07 13:50:08;;;;;;;;;;;20.20;90.30;;;;;;5097396;28;20386;-60
2023/05/07 13:52:34;;;;;;;;;;;20.20;90.20;;;;;;5097036;28;19961;-59
2023/05/07 13:54:59;;;;;;;;;;;20.20;90.20;;;;;;5097216;28;19912;-60
2023/05/07 13:57:25;;;;;;;;;;;20.20;90.20;;;;;;5095938;28;19919;-60
2023/05/07 13:59:50;;;;;;;;;;;20.20;90.20;;;;;;5097161;28;19912;-60
2023/05/07 14:02:16;;;;;;;;;;;20.20;90.30;;;;;;5097098;28;19915;-60
2023/05/07 14:04:41;;;;;;;;;;;20.20;90.50;;;;;;5096743;28;20355;-60
2023/05/07 14:07:07;;;;;;;;;;;20.20;90.30;;;;;;5096492;28;19932;-60
2023/05/07 14:09:32;;;;;;;;;;;20.10;90.30;;;;;;5097048;28;19913;-59
2023/05/07 14:11:58;;;;;;;;;;;20.20;90.30;;;;;;5097311;28;19931;-60